Main page
METAR-TAF:

METAR-TAF

Airports :

Altus Air Force Base

Altus, Oklahoma, United States

latitude: 34-39N, longitude: 099-16W, elevation: 1378 ft

Current weather observation

The report was made 45 minutes ago, at 17:56 UTC
Wind 3 mph from the Northwest
Temperature 50°F
Humidity 46%
Pressure 30.21 in. Hg
Visibility: 10 miles
Clear sky

METAR: KLTS 191756Z AUTO 31003KT 10SM CLR 10/M01 A3021 RMK AO2 SLP238 T00961009 10096 21053 50001 $

Time: 12:41 (18:41 UTC)

Forecast

The report was made 1 hour and 41 minutes ago, at 17:00 UTC
Forecast valid from 19 at 17 UTC to 20 at 23 UTC
Wind 7 mph from the West/Northwest
Visibility 6.2 miles or more
Clear sky
Becoming
from 20 at 00 UTC to 20 at 01 UTC
Wind 7 mph from the North
Visibility 6.2 miles or more
Clear sky

TAF: KLTS 191700Z 1917/2023 30006KT 9999 SKC QNH3015NS BECMG 2000/2001 01006KT 9999 SKC QNH3020INS TX11/1921Z TNM03/2012Z

Weather observations and forecasts of more than 4000 airports (METAR and TAF reports).

The available stations are represented by yellow and red dots on the map.

Hover mouse over dot to see the name of the station.

Then click to see weather observations and forecasts.

To change the map : click on the green buttons with a black cross to zoom in, on the green button with a dash to zoom out, or on the green arrows for adjacent maps.


METAR-TAF: